KAXN/AXN METAR and TAF weather

Enter ICAO airport designator
Station Type Date Time Source
KAXN METAR 2022/06/27 08:53 UTC NOAA

KAXN 270853Z AUTO 28004KT 10SM CLR 13/10 A3023 RMK AO2 SLP239 T01330100 56003


Station Type Date Time Source
KAXN Decoded METAR 2022/06/27 08:53 UTC NOAA

CHANDLER FIELD, MN, United States (KAXN) 45-52N 095-24W 433M
Jun 27, 2022 - 04:53 AM EDT / 2022.06.27 0853 UTC
Wind: from the W (280 degrees) at 5 MPH (4 KT):0
Visibility: 10 mile(s):0
Sky conditions: clear
Temperature: 55.9 F (13.3 C)
Dew Point: 50.0 F (10.0 C)
Relative Humidity: 80%
Pressure (altimeter): 30.23 in. Hg (1023 hPa)
Pressure tendency: 0.01 inches (0.3 hPa) lower than three hours ago
ob: KAXN 270853Z AUTO 28004KT 10SM CLR 13/10 A3023 RMK AO2 SLP239 T01330100 56003
cycle: 9

Station Type Date Time Source
KAXN TAF 2022/06/27 06:54 UTC NOAA

TAF KAXN 270535Z 2706/2806 27005KT P6SM SKC
FM271700 26010KT P6SM FEW070
FM280200 21004KT P6SM SKC

Example: see airport list